createdAt,value
2023-02-23T00:00:36.398Z,7.71
2023-02-23T00:03:04.437Z,7.71
2023-02-23T00:05:37.258Z,7.65
2023-02-23T00:08:06.155Z,7.58
2023-02-23T00:10:33.970Z,7.54
2023-02-23T00:13:02.148Z,7.51
2023-02-23T00:15:31.507Z,7.51
2023-02-23T00:17:59.889Z,7.55
2023-02-23T00:20:28.852Z,7.51
2023-02-23T00:22:58.083Z,7.50
2023-02-23T00:25:26.508Z,7.49
2023-02-23T00:27:54.892Z,7.45
2023-02-23T00:30:24.299Z,7.47
2023-02-23T00:32:53.498Z,7.46
2023-02-23T00:35:21.385Z,7.38
2023-02-23T00:37:50.460Z,7.40
2023-02-23T00:40:21.331Z,7.44
2023-02-23T00:42:50.054Z,7.46
2023-02-23T00:45:18.000Z,7.44
2023-02-23T00:47:48.400Z,7.41
2023-02-23T00:50:19.338Z,7.34
2023-02-23T00:52:47.596Z,7.28
2023-02-23T00:55:16.362Z,7.24
2023-02-23T00:57:44.230Z,7.30
2023-02-23T01:00:20.144Z,7.32
2023-02-23T01:02:48.856Z,7.30
2023-02-23T01:05:18.398Z,7.28
2023-02-23T01:07:47.415Z,7.21
2023-02-23T01:10:21.132Z,7.27
2023-02-23T01:12:50.778Z,7.28
2023-02-23T01:15:20.306Z,7.30
2023-02-23T01:17:48.651Z,7.31
2023-02-23T01:20:19.313Z,7.30
2023-02-23T01:22:50.279Z,7.30
2023-02-23T01:25:19.661Z,7.34
2023-02-23T01:27:47.583Z,7.40
2023-02-23T01:30:16.666Z,7.46
2023-02-23T01:32:45.109Z,7.47
2023-02-23T01:35:13.706Z,7.49
2023-02-23T01:37:44.130Z,7.58
2023-02-23T01:40:16.058Z,7.61
2023-02-23T01:42:45.751Z,7.58
2023-02-23T01:45:24.635Z,7.56
2023-02-23T01:47:55.794Z,7.50
2023-02-23T01:50:27.508Z,7.52
2023-02-23T01:52:59.364Z,7.54
2023-02-23T01:55:29.651Z,7.47
2023-02-23T01:58:08.021Z,7.45
2023-02-23T02:00:37.601Z,7.42
2023-02-23T02:03:14.019Z,7.42
2023-02-23T02:05:42.114Z,7.39
2023-02-23T02:08:12.601Z,7.40
2023-02-23T02:10:39.677Z,7.35
2023-02-23T02:13:14.183Z,7.33
2023-02-23T02:16:05.235Z,7.34
2023-02-23T02:18:42.009Z,7.33
2023-02-23T02:21:35.211Z,7.32
2023-02-23T02:24:38.597Z,7.38
2023-02-23T02:27:22.583Z,7.32
2023-02-23T02:30:23.114Z,7.27
2023-02-23T02:33:37.941Z,7.25
2023-02-23T02:36:45.272Z,7.23
2023-02-23T02:39:24.116Z,7.22
2023-02-23T02:42:00.129Z,7.21
2023-02-23T02:44:33.385Z,7.21
2023-02-23T02:47:08.114Z,7.21
2023-02-23T02:49:47.315Z,7.19
2023-02-23T02:52:20.126Z,7.16
2023-02-23T02:54:53.470Z,7.18
2023-02-23T02:57:26.090Z,7.20
2023-02-23T03:00:11.579Z,7.22
2023-02-23T03:02:59.106Z,7.17
2023-02-23T03:05:49.071Z,7.20
2023-02-23T03:08:41.697Z,7.20
2023-02-23T03:11:29.617Z,7.24
2023-02-23T03:14:27.014Z,7.24
2023-02-23T03:17:22.919Z,7.25
2023-02-23T03:20:15.756Z,7.22
2023-02-23T03:23:10.467Z,7.29
2023-02-23T03:26:07.388Z,7.32
2023-02-23T03:29:06.504Z,7.25
2023-02-23T03:31:59.868Z,7.28
2023-02-23T03:34:52.337Z,7.26
2023-02-23T03:37:45.912Z,7.28
2023-02-23T03:40:37.245Z,7.32
2023-02-23T03:43:28.588Z,7.29
2023-02-23T03:46:18.152Z,7.29
2023-02-23T03:49:04.925Z,7.32
2023-02-23T03:51:54.401Z,7.32
2023-02-23T03:54:45.296Z,7.30
2023-02-23T03:57:34.821Z,7.24
2023-02-23T04:00:24.096Z,7.20
2023-02-23T04:03:13.153Z,7.17
2023-02-23T04:06:01.325Z,7.11
2023-02-23T04:08:52.297Z,7.13
2023-02-23T04:11:42.680Z,7.15
2023-02-23T04:14:16.839Z,7.06
2023-02-23T04:16:44.393Z,7.11
2023-02-23T04:19:13.900Z,7.15
2023-02-23T04:21:41.920Z,7.15
2023-02-23T04:24:11.492Z,7.06
2023-02-23T04:26:39.413Z,7.20
2023-02-23T04:29:07.305Z,7.21
2023-02-23T04:31:35.236Z,7.21
2023-02-23T04:34:03.221Z,7.19
2023-02-23T04:36:32.463Z,7.26
2023-02-23T04:39:00.404Z,7.20
2023-02-23T04:41:28.249Z,7.20
2023-02-23T04:43:56.142Z,7.24
2023-02-23T04:46:24.035Z,7.30
2023-02-23T04:48:51.855Z,7.33
2023-02-23T04:51:20.035Z,7.34
2023-02-23T04:53:49.342Z,7.40
2023-02-23T04:56:17.214Z,7.39
2023-02-23T04:58:45.074Z,7.38
2023-02-23T05:01:13.061Z,7.31
2023-02-23T05:03:40.986Z,7.34
2023-02-23T05:06:09.039Z,7.29
2023-02-23T05:08:36.867Z,7.25
2023-02-23T05:11:07.704Z,7.23
2023-02-23T05:13:35.774Z,7.19
2023-02-23T05:16:03.713Z,7.24
2023-02-23T05:18:31.770Z,7.21
2023-02-23T05:21:03.293Z,7.18
2023-02-23T05:23:31.329Z,7.16
2023-02-23T05:26:02.302Z,7.14
2023-02-23T05:28:31.657Z,7.17
2023-02-23T05:30:59.638Z,7.18
2023-02-23T05:33:27.874Z,7.21
2023-02-23T05:35:55.812Z,7.23
2023-02-23T05:38:23.676Z,7.30
2023-02-23T05:40:51.608Z,7.29
2023-02-23T05:43:19.418Z,7.27
2023-02-23T05:45:48.690Z,7.43
2023-02-23T05:48:16.558Z,7.39
2023-02-23T05:50:44.395Z,7.26
2023-02-23T05:53:12.333Z,7.32
2023-02-23T05:55:40.179Z,7.28
2023-02-23T05:58:08.089Z,7.28
2023-02-23T06:00:35.931Z,7.33
2023-02-23T06:03:05.258Z,7.33
2023-02-23T06:05:33.143Z,7.35
2023-02-23T06:08:01.020Z,7.42
2023-02-23T06:10:28.930Z,7.43
2023-02-23T06:12:56.833Z,7.41
2023-02-23T06:15:24.654Z,7.41
2023-02-23T06:17:53.580Z,7.41
2023-02-23T06:20:22.839Z,7.36
2023-02-23T06:22:50.706Z,7.41
2023-02-23T06:25:18.825Z,7.46
2023-02-23T06:27:46.756Z,7.43
2023-02-23T06:30:15.099Z,7.41
2023-02-23T06:32:43.082Z,7.35
2023-02-23T06:35:15.307Z,7.34
2023-02-23T06:37:44.512Z,7.38
2023-02-23T06:40:12.896Z,7.27
2023-02-23T06:42:40.786Z,7.39
2023-02-23T06:45:09.420Z,7.45
2023-02-23T06:47:37.243Z,7.50
2023-02-23T06:50:05.744Z,7.51
2023-02-23T06:52:33.630Z,7.60
2023-02-23T06:55:02.980Z,7.59
2023-02-23T06:57:30.913Z,7.58
2023-02-23T06:59:58.780Z,7.56
2023-02-23T07:02:26.656Z,7.61
2023-02-23T07:04:54.532Z,7.58
2023-02-23T07:07:22.659Z,7.56
2023-02-23T07:09:50.473Z,7.61
2023-02-23T07:12:19.754Z,7.65
2023-02-23T07:14:48.083Z,7.67
2023-02-23T07:17:17.600Z,7.68
2023-02-23T07:19:45.542Z,7.73
2023-02-23T07:22:13.370Z,7.77
2023-02-23T07:24:41.248Z,7.82
2023-02-23T07:27:09.123Z,7.87
2023-02-23T07:29:38.345Z,7.92
2023-02-23T07:32:06.680Z,7.98
2023-02-23T07:34:34.634Z,8.03
2023-02-23T07:37:02.637Z,8.20
2023-02-23T07:39:31.083Z,8.23
2023-02-23T07:41:59.092Z,8.23
2023-02-23T07:44:27.273Z,8.26
2023-02-23T07:46:56.658Z,8.32
2023-02-23T07:49:25.316Z,8.41
2023-02-23T07:51:53.259Z,8.41
2023-02-23T07:54:21.965Z,8.41
2023-02-23T07:56:49.876Z,8.42
2023-02-23T07:59:17.697Z,8.48
2023-02-23T08:01:45.623Z,8.49
2023-02-23T08:04:14.932Z,8.53
2023-02-23T08:06:42.882Z,8.60
2023-02-23T08:09:12.225Z,8.61
2023-02-23T08:11:40.542Z,8.62
2023-02-23T08:14:10.491Z,8.65
2023-02-23T08:16:38.424Z,8.68
2023-02-23T08:19:06.343Z,8.66
2023-02-23T08:21:35.628Z,8.77
2023-02-23T08:24:03.497Z,8.89
2023-02-23T08:26:31.375Z,9.01
2023-02-23T08:28:59.251Z,9.04
2023-02-23T08:31:27.496Z,8.98
2023-02-23T08:33:55.533Z,9.08
2023-02-23T08:36:23.573Z,9.14
2023-02-23T08:38:54.189Z,9.00
2023-02-23T08:41:22.478Z,9.23
2023-02-23T08:43:50.326Z,9.32
2023-02-23T08:46:20.164Z,9.27
2023-02-23T08:48:48.671Z,9.23
2023-02-23T08:51:18.081Z,9.25
2023-02-23T08:53:46.276Z,9.34
2023-02-23T08:56:16.304Z,9.46
2023-02-23T08:58:44.659Z,9.46
2023-02-23T09:01:18.900Z,9.54
2023-02-23T09:03:47.104Z,9.61
2023-02-23T09:06:17.738Z,9.60
2023-02-23T09:08:45.860Z,9.65
2023-02-23T09:11:15.128Z,9.80
2023-02-23T09:13:43.104Z,9.92
2023-02-23T09:16:11.038Z,9.90
2023-02-23T09:18:39.535Z,9.94
2023-02-23T09:21:08.757Z,9.93
2023-02-23T09:23:37.112Z,9.90
2023-02-23T09:26:06.059Z,10.03
2023-02-23T09:28:36.122Z,10.20
2023-02-23T09:31:07.425Z,10.26
2023-02-23T09:33:35.716Z,10.28
2023-02-23T09:36:06.175Z,10.51
2023-02-23T09:38:34.074Z,10.55
2023-02-23T09:41:02.118Z,10.67
2023-02-23T09:43:38.154Z,10.60
2023-02-23T09:46:32.389Z,10.63
2023-02-23T09:49:04.348Z,10.64
2023-02-23T09:51:38.327Z,10.71
2023-02-23T09:54:08.675Z,10.79
2023-02-23T09:56:39.808Z,10.82
2023-02-23T09:59:13.489Z,10.75
2023-02-23T10:01:56.162Z,10.79
2023-02-23T10:04:27.816Z,10.95
2023-02-23T10:07:01.237Z,11.10
2023-02-23T10:09:43.307Z,11.03
2023-02-23T10:12:17.430Z,10.96
2023-02-23T10:15:02.209Z,11.00
2023-02-23T10:17:40.182Z,10.97
2023-02-23T10:20:19.780Z,11.03
2023-02-23T10:22:49.801Z,11.15
2023-02-23T10:25:21.227Z,11.18
2023-02-23T10:27:50.552Z,11.40
2023-02-23T10:30:22.570Z,11.41
2023-02-23T10:32:55.513Z,11.36
2023-02-23T10:35:24.662Z,11.42
2023-02-23T10:37:53.988Z,11.53
2023-02-23T10:40:24.392Z,11.68
2023-02-23T10:42:53.546Z,11.60
2023-02-23T10:45:24.644Z,11.59
2023-02-23T10:47:58.748Z,11.63
2023-02-23T10:50:29.015Z,11.74
2023-02-23T10:53:01.209Z,11.88
2023-02-23T10:55:31.055Z,11.90
2023-02-23T10:58:10.939Z,12.05
2023-02-23T11:00:40.909Z,12.16
2023-02-23T11:03:23.649Z,12.16
2023-02-23T11:05:53.682Z,12.16
2023-02-23T11:08:26.202Z,12.07
2023-02-23T11:11:18.792Z,12.05
2023-02-23T11:13:48.965Z,11.96
2023-02-23T11:16:19.572Z,11.91
2023-02-23T11:18:54.585Z,11.90
2023-02-23T11:21:33.441Z,11.89
2023-02-23T11:24:14.144Z,11.84
2023-02-23T11:26:44.410Z,11.79
2023-02-23T11:29:20.565Z,11.77
2023-02-23T11:31:51.607Z,11.69
2023-02-23T11:34:31.672Z,11.68
2023-02-23T11:37:02.412Z,11.67
2023-02-23T11:39:30.403Z,11.66
2023-02-23T11:42:17.839Z,11.57
2023-02-23T11:44:51.661Z,11.63
2023-02-23T11:47:22.614Z,11.66
2023-02-23T11:49:52.204Z,11.68
2023-02-23T11:52:23.240Z,11.67
2023-02-23T11:54:57.233Z,11.69
2023-02-23T11:57:27.659Z,11.76
2023-02-23T11:59:57.521Z,11.81
2023-02-23T12:02:27.821Z,11.85
2023-02-23T12:05:08.037Z,11.89
2023-02-23T12:07:41.640Z,11.92
2023-02-23T12:10:20.417Z,11.93
2023-02-23T12:12:55.702Z,11.90
2023-02-23T12:15:36.263Z,11.88
2023-02-23T12:18:12.763Z,11.86
2023-02-23T12:20:47.082Z,11.86
2023-02-23T12:23:19.637Z,11.84
2023-02-23T12:25:52.314Z,11.86
2023-02-23T12:28:28.000Z,11.89
2023-02-23T12:31:01.079Z,11.95
2023-02-23T12:33:35.250Z,11.97
2023-02-23T12:36:13.954Z,12.00
2023-02-23T12:38:51.761Z,12.01
2023-02-23T12:41:27.401Z,12.04
2023-02-23T12:44:01.182Z,12.10
2023-02-23T12:46:33.228Z,12.17
2023-02-23T12:49:07.587Z,12.22
2023-02-23T12:51:42.155Z,12.28
2023-02-23T12:54:12.585Z,12.32
2023-02-23T12:56:50.898Z,12.32
2023-02-23T12:59:38.887Z,12.40
2023-02-23T13:02:15.654Z,12.47
2023-02-23T13:05:02.422Z,12.54
2023-02-23T13:07:44.701Z,12.61
2023-02-23T13:10:21.899Z,12.62
2023-02-23T13:12:58.933Z,12.69
2023-02-23T13:15:36.533Z,12.71
2023-02-23T13:18:11.713Z,12.77
2023-02-23T13:20:44.641Z,12.80
2023-02-23T13:23:22.711Z,12.82
2023-02-23T13:25:56.913Z,12.83
2023-02-23T13:28:37.529Z,12.84
2023-02-23T13:31:06.143Z,12.85
2023-02-23T13:33:44.013Z,12.73
2023-02-23T13:36:13.375Z,12.69
2023-02-23T13:38:53.609Z,12.74
2023-02-23T13:41:34.566Z,12.76
2023-02-23T13:44:10.786Z,12.77
2023-02-23T13:46:48.495Z,12.79
2023-02-23T13:49:28.555Z,12.82
2023-02-23T13:51:59.711Z,12.82
2023-02-23T13:54:35.770Z,12.87
2023-02-23T13:57:12.394Z,12.84
2023-02-23T13:59:45.490Z,12.83
2023-02-23T14:02:37.238Z,12.82
2023-02-23T14:05:08.748Z,12.81
2023-02-23T14:07:42.658Z,12.83
2023-02-23T14:10:20.623Z,12.86
2023-02-23T14:13:07.773Z,12.88
2023-02-23T14:15:45.214Z,12.94
2023-02-23T14:18:33.404Z,12.98
2023-02-23T14:21:13.935Z,13.04
2023-02-23T14:23:53.673Z,13.09
2023-02-23T14:26:41.105Z,13.14
2023-02-23T14:29:24.330Z,13.15
2023-02-23T14:32:05.888Z,13.11
2023-02-23T14:34:49.919Z,13.05
2023-02-23T14:37:22.182Z,13.01
2023-02-23T14:39:51.140Z,12.98
2023-02-23T14:42:25.019Z,12.95
2023-02-23T14:44:54.295Z,12.92
2023-02-23T14:47:24.462Z,12.90
2023-02-23T14:49:56.716Z,12.83
2023-02-23T14:52:27.297Z,12.77
2023-02-23T14:55:09.572Z,12.68
2023-02-23T14:57:40.746Z,12.58
2023-02-23T15:00:17.292Z,12.46
2023-02-23T15:02:55.423Z,12.38
2023-02-23T15:05:26.182Z,12.32
2023-02-23T15:07:54.517Z,12.23
2023-02-23T15:10:27.508Z,12.17
2023-02-23T15:12:57.448Z,12.08
2023-02-23T15:15:27.389Z,12.03
2023-02-23T15:17:58.861Z,11.98
2023-02-23T15:20:32.620Z,11.94
2023-02-23T15:23:03.418Z,11.89
2023-02-23T15:25:37.479Z,11.86
2023-02-23T15:28:22.649Z,11.81
2023-02-23T15:30:52.233Z,11.75
2023-02-23T15:33:23.554Z,11.70
2023-02-23T15:35:55.442Z,11.62
2023-02-23T15:38:43.828Z,11.57
2023-02-23T15:41:19.460Z,11.49
2023-02-23T15:43:48.958Z,11.44
2023-02-23T15:46:24.286Z,11.39
2023-02-23T15:48:54.653Z,11.34
2023-02-23T15:51:31.862Z,11.28
2023-02-23T15:54:01.548Z,11.21
2023-02-23T15:56:31.454Z,11.17
2023-02-23T15:59:13.024Z,11.10
2023-02-23T16:01:44.240Z,11.03
2023-02-23T16:04:18.390Z,11.00
2023-02-23T16:06:55.068Z,10.95
2023-02-23T16:09:28.573Z,10.89
2023-02-23T16:12:01.476Z,10.84
2023-02-23T16:14:36.060Z,10.77
2023-02-23T16:17:11.532Z,10.74
2023-02-23T16:19:41.803Z,10.72
2023-02-23T16:22:21.417Z,10.68
2023-02-23T16:24:57.684Z,10.65
2023-02-23T16:27:27.983Z,10.62
2023-02-23T16:30:07.409Z,10.56
2023-02-23T16:32:38.833Z,10.44
2023-02-23T16:35:16.884Z,10.37
2023-02-23T16:37:56.742Z,10.31
2023-02-23T16:40:25.132Z,10.31
2023-02-23T16:42:54.861Z,10.29
2023-02-23T16:45:24.240Z,10.33
2023-02-23T16:47:52.862Z,10.27
2023-02-23T16:50:24.187Z,10.15
2023-02-23T16:52:54.157Z,10.11
2023-02-23T16:55:25.617Z,10.06
2023-02-23T16:57:56.031Z,9.97
2023-02-23T17:00:28.684Z,9.90
2023-02-23T17:02:58.635Z,9.87
2023-02-23T17:05:27.240Z,9.82
2023-02-23T17:07:57.566Z,9.82
2023-02-23T17:10:28.382Z,9.79
2023-02-23T17:12:58.019Z,9.78
2023-02-23T17:15:31.043Z,9.74
2023-02-23T17:17:58.954Z,9.72
2023-02-23T17:20:29.568Z,9.67
2023-02-23T17:22:59.266Z,9.63
2023-02-23T17:25:27.998Z,9.58
2023-02-23T17:27:56.729Z,9.55
2023-02-23T17:30:25.581Z,9.52
2023-02-23T17:32:57.055Z,9.52
2023-02-23T17:35:28.728Z,9.51
2023-02-23T17:37:56.696Z,9.48
2023-02-23T17:40:28.741Z,9.46
2023-02-23T17:42:58.069Z,9.39
2023-02-23T17:45:26.707Z,9.36
2023-02-23T17:47:56.509Z,9.32
2023-02-23T17:50:26.926Z,9.31
2023-02-23T17:52:55.508Z,9.28
2023-02-23T17:55:24.185Z,9.29
2023-02-23T17:57:52.118Z,9.28
2023-02-23T18:00:20.923Z,9.32
2023-02-23T18:02:49.024Z,9.31
2023-02-23T18:05:18.568Z,9.40
2023-02-23T18:07:48.234Z,9.40
2023-02-23T18:10:17.186Z,9.35
2023-02-23T18:12:45.524Z,9.32
2023-02-23T18:15:13.673Z,9.31
2023-02-23T18:17:41.525Z,9.35
2023-02-23T18:20:14.044Z,9.39
2023-02-23T18:22:43.652Z,9.36
2023-02-23T18:25:21.419Z,9.26
2023-02-23T18:27:53.940Z,9.16
2023-02-23T18:30:24.460Z,9.11
2023-02-23T18:32:53.363Z,9.12
2023-02-23T18:35:21.321Z,9.10
2023-02-23T18:37:50.653Z,9.14
2023-02-23T18:40:23.689Z,9.11
2023-02-23T18:42:51.770Z,9.09
2023-02-23T18:45:19.705Z,9.10
2023-02-23T18:47:47.525Z,9.09
2023-02-23T18:50:19.020Z,9.00
2023-02-23T18:52:47.856Z,9.07
2023-02-23T18:55:17.261Z,9.05
2023-02-23T18:57:45.261Z,9.04
2023-02-23T19:00:15.123Z,8.97
2023-02-23T19:02:44.177Z,8.93
2023-02-23T19:05:13.809Z,8.91
2023-02-23T19:07:42.254Z,8.86
2023-02-23T19:10:13.040Z,8.83
2023-02-23T19:12:42.413Z,8.85
2023-02-23T19:15:12.386Z,8.88
2023-02-23T19:17:40.329Z,8.87
2023-02-23T19:20:12.948Z,8.86
2023-02-23T19:22:41.937Z,8.81
2023-02-23T19:25:14.246Z,8.71
2023-02-23T19:27:44.296Z,8.79
2023-02-23T19:30:14.634Z,8.81
2023-02-23T19:32:43.580Z,8.86
2023-02-23T19:35:15.610Z,8.89
2023-02-23T19:37:50.985Z,8.88
2023-02-23T19:40:22.891Z,8.87
2023-02-23T19:42:53.038Z,8.87
2023-02-23T19:45:21.769Z,8.94
2023-02-23T19:47:52.358Z,9.04
2023-02-23T19:50:20.780Z,9.10
2023-02-23T19:52:49.585Z,9.02
2023-02-23T19:55:17.557Z,8.97
2023-02-23T19:57:45.443Z,8.95
2023-02-23T20:00:15.516Z,8.99
2023-02-23T20:02:43.852Z,8.98
2023-02-23T20:05:12.599Z,8.98
2023-02-23T20:07:40.639Z,8.99
2023-02-23T20:10:10.300Z,9.00
2023-02-23T20:12:38.387Z,9.02
2023-02-23T20:15:07.551Z,8.97
2023-02-23T20:17:36.947Z,8.93
2023-02-23T20:20:06.296Z,8.92
2023-02-23T20:22:38.722Z,8.90
2023-02-23T20:25:07.201Z,8.86
2023-02-23T20:27:41.360Z,8.83
2023-02-23T20:30:10.693Z,8.83
2023-02-23T20:32:40.269Z,8.81
2023-02-23T20:35:11.224Z,8.86
2023-02-23T20:37:39.155Z,8.92
2023-02-23T20:40:16.308Z,8.90
2023-02-23T20:42:45.928Z,8.93
2023-02-23T20:45:14.683Z,8.89
2023-02-23T20:47:46.805Z,8.81
2023-02-23T20:50:15.783Z,8.85
2023-02-23T20:52:45.915Z,8.83
2023-02-23T20:55:14.182Z,8.85
2023-02-23T20:57:42.015Z,9.00
2023-02-23T21:00:10.868Z,9.16
2023-02-23T21:02:40.857Z,9.23
2023-02-23T21:05:12.617Z,9.29
2023-02-23T21:07:40.970Z,9.21
2023-02-23T21:10:10.520Z,9.18
2023-02-23T21:12:38.370Z,9.17
2023-02-23T21:15:09.180Z,9.24
2023-02-23T21:17:38.445Z,9.31
2023-02-23T21:20:09.759Z,9.38
2023-02-23T21:22:39.320Z,9.42
2023-02-23T21:25:10.389Z,9.35
2023-02-23T21:27:38.585Z,9.31
2023-02-23T21:30:10.384Z,9.27
2023-02-23T21:32:42.099Z,9.41
2023-02-23T21:35:11.452Z,9.44
2023-02-23T21:37:42.110Z,9.38
2023-02-23T21:40:13.082Z,9.40
2023-02-23T21:42:42.992Z,9.40
2023-02-23T21:45:13.572Z,9.38
2023-02-23T21:47:44.649Z,9.22
2023-02-23T21:50:15.658Z,9.13
2023-02-23T21:52:48.517Z,9.09
2023-02-23T21:55:24.638Z,9.12
2023-02-23T21:57:52.981Z,9.11
2023-02-23T22:00:22.720Z,9.21
2023-02-23T22:02:51.392Z,9.25
2023-02-23T22:05:20.476Z,9.30
2023-02-23T22:07:50.784Z,9.36
2023-02-23T22:10:19.448Z,9.44
2023-02-23T22:12:47.393Z,9.48
2023-02-23T22:15:16.609Z,9.52
2023-02-23T22:17:44.836Z,9.56
2023-02-23T22:20:13.723Z,9.55
2023-02-23T22:22:42.872Z,9.54
2023-02-23T22:25:12.428Z,9.51
2023-02-23T22:27:43.712Z,9.50
2023-02-23T22:30:13.314Z,9.52
2023-02-23T22:32:42.589Z,9.56
2023-02-23T22:35:11.424Z,9.55
2023-02-23T22:37:39.397Z,9.56
2023-02-23T22:40:13.638Z,9.45
2023-02-23T22:42:44.827Z,9.31
2023-02-23T22:45:12.953Z,9.20
2023-02-23T22:47:40.764Z,9.06
2023-02-23T22:50:12.084Z,9.06
2023-02-23T22:52:40.746Z,9.05
2023-02-23T22:55:09.454Z,9.08
2023-02-23T22:57:37.434Z,9.04
2023-02-23T23:00:11.379Z,8.82
2023-02-23T23:02:39.887Z,8.94
2023-02-23T23:05:09.517Z,9.14
2023-02-23T23:07:37.745Z,9.25
2023-02-23T23:10:12.116Z,9.32
2023-02-23T23:12:41.184Z,9.41
2023-02-23T23:15:14.906Z,9.37
2023-02-23T23:17:47.977Z,9.48
2023-02-23T23:20:17.594Z,9.60
2023-02-23T23:22:45.739Z,9.60
2023-02-23T23:25:15.695Z,9.64
2023-02-23T23:27:45.744Z,9.69
2023-02-23T23:30:15.986Z,9.68
2023-02-23T23:32:43.990Z,9.72
2023-02-23T23:35:13.395Z,9.69
2023-02-23T23:37:41.295Z,9.70
2023-02-23T23:40:14.390Z,9.64
2023-02-23T23:42:45.897Z,9.73
2023-02-23T23:45:17.127Z,9.74
2023-02-23T23:47:45.440Z,9.70
2023-02-23T23:50:16.157Z,9.68
2023-02-23T23:52:45.824Z,9.70
2023-02-23T23:55:15.941Z,9.50
2023-02-23T23:57:44.275Z,9.34
